• Join FlightAware (Why Join?)
  • Login
  • US Flag 
01:25AM EDT


 

Airport Tracker/Info


-or-


 

Live Flight TrackerFlight Track Log ✈ DAL6032 ✈ 20-Apr-2013 ✈ KGRR - KDTW

Flight Track Log - Related Links

Times and Time Zones

All times are in EDT time to prevent confusion due to time zone crossing. See the DAL6032 flight status page for this flight to view local times or setup timezone preferences in your user account.

Time Position Orientation Groundspeed Altitude Reporting Facility
EDT Latitude Longitude Course Direction KTS MPH feet Rate Location/Type
10:17AM 42.8831 -85.5656 62° Northeast 152 175 2,500  Level Chicago Center
10:18AM 42.9258 -85.5800 346° North 208 239 4,900 2,340 Climbing Chicago Center
10:19AM 42.9469 -85.4969 71° East 229 264 7,400 2,460 Climbing Chicago Center
10:20AM 42.9222 -85.1185 63° Northeast  Level FlightAware Approximate
10:20AM 42.9717 -85.3803 74° East 262 302 10,000  Level Chicago Center
10:21AM 42.9670 -84.9992 62° Northeast  Level FlightAware Approximate
10:21AM 42.9961 -85.2642 74° East 312 359 10,900  Level Chicago Center
10:22AM 43.0131 -84.8810 62° Northeast  Level FlightAware Approximate
10:22AM 42.9972 -85.1319 89° East 349 402 11,000  Level Chicago Center
10:23AM 42.9819 -85.0000 99° East 353 406 10,900  Descending Chicago Center
10:24AM 42.9683 -84.8697 98° East 349 402 11,000  Climbing Chicago Center
10:25AM 42.9539 -84.7361 98° East 354 407 11,000  Level Chicago Center
10:26AM 42.9397 -84.6036 98° East 354 407 11,000  Level Chicago Center
10:27AM 42.9206 -84.4428 99° East 358 412 11,000  Level Chicago Center
10:28AM 42.9058 -84.3103 99° East 356 410 11,000  Level Chicago Center
10:29AM 42.8919 -84.2392 105° East 354 407 11,000 60 Level Cleveland Center
10:30AM 42.8828 -84.1367 97° East 351 404 11,100  Climbing Cleveland Center
10:31AM 42.8644 -83.9825 99° East 349 402 11,000 -120 Descending Cleveland Center
10:31AM 42.8614 -83.9397 96° East 333 383 11,000 -120 Level Cleveland Center
10:32AM 42.8492 -83.8569 101° East 336 387 10,900  Descending Cleveland Center
10:32AM 42.8444 -83.8031 97° East 323 372 11,000  Climbing Cleveland Center
10:33AM 42.8211 -83.7453 119° Southeast 324 373 10,900 60 Descending Cleveland Center
10:33AM 42.7867 -83.7122 145° Southeast 310 357 11,100  Climbing Cleveland Center
10:34AM 42.7519 -83.6878 153° Southeast 288 331 10,900 -900 Descending Cleveland Center
10:34AM 42.7250 -83.6725 157° South 259 298 10,300 -1,620 Descending Cleveland Center
10:35AM 42.6861 -83.6481 155° Southeast 263 303 9,300 -1,080 Descending Cleveland Center
10:35AM 42.6533 -83.6294 157° South 263 303 9,100 -420 Descending Cleveland Center
10:36AM 42.6183 -83.6081 156° South 263 303 8,900 -1,020 Descending Cleveland Center
10:36AM 42.5906 -83.5614 129° Southeast 268 308 8,000 -1,440 Descending Cleveland Center
10:37AM 42.5725 -83.5297 128° Southeast 258 297 7,500 -1,260 Descending Cleveland Center
10:37AM 42.5589 -83.4922 116° Southeast 256 295 7,000 -1,320 Descending Cleveland Center
10:38AM 42.5350 -83.4489 127° Southeast 253 291 6,200 -1,020 Descending Cleveland Center
10:38AM 42.5192 -83.4172 124° Southeast 246 283 6,000 -300 Descending Cleveland Center
10:39AM 42.4972 -83.3711 123° Southeast 253 291 5,900  Descending Cleveland Center
10:39AM 42.4833 -83.3453 126° Southeast 249 287 6,000 -900 Climbing Cleveland Center
10:40AM 42.4392 -83.2731 130° Southeast 218 251 4,600 -900 Descending Cleveland Center
10:41AM 42.3850 -83.2761 182° South 190 219 4,100 -660 Descending Cleveland Center
10:42AM 42.3303 -83.2908 191° South 193 222 3,300 -840 Descending Cleveland Center